Accueil
METAR-TAF:

METAR-TAF

Aéroports :

Alpnach, Suisse

latitude: 46-56-19N, longitude: 8-17-03E, altitude: 440 m

Observation

Le bulletin a été fait il y a 38 minutes, à 21:50 UTC
Vent 15 kt de nord/nord-est avec des rafales jusqu'à 27 kt, variant entre nord et est/nord-est
Température 3°C
Humidité 87%
Pression 1016 hPa
Visibilité: 8000 m
Quelques nuages à une hauteur de 1000 ft
Nuages épars à une hauteur de 1500 ft
Nuages fragmentés à une hauteur de 1800 ft
pluie faible

METAR: LSMA 222150Z AUTO 03015G27KT 350V060 8000NDV -RA FEW010 SCT015 BKN018 03/01 Q1016 RERA RMK

Heure: 00:28 (22:28 UTC)


TAF: absent

Observations et prévisions météorologiques de plus de 4000 aéroports (messages METAR et TAF).

Les stations disponibles sont représentées par des disques jaunes et rouges sur la carte.

Passer la souris dessus pour voir le nom de la station.

Cliquer dessus pour voir les observations et prévisions météorologiques.

Pour changer de carte: cliquez sur les boutons verts avec une croix noire pour zoomer, sur le bouton vert avec un tiret pour effectuer un zoom arrière, ou sur les flèches vertes pour les cartes adjacentes.


METAR-TAF: